Disclaimer

Please do not use the information listed here in-flight or in-navigation, as they are not provided to us by the airports but are provided by volunteers, so they might be outdated.

Search


Regions


Airport information page

Radio informations:
SEINE APP - 121.65 MHz
TROYES INFO - 125.35 MHz

Airport informations:
Latitude: 48° 19' 19.69" N
Longitude: 004° 01' 00.13" E
Elevation: 388 feet - 118 meters
Operating hours: Remarks
Operating agency: Civil government, landing fees and diplomatic clearance may be required
Timezone: UTC+1(+2DT) - Last Sunday in March to last Sunday in October
Fuel: Jet A1, without icing nhibitor.

100/130 MIL Spec, low lead, aviation gasoline (BLUE)

Runway information:
05/23 - 2559 x 328 feet< - >780 x 100 meters
18/36 - 5413 x 98 feet< - >1650 x 30 meters
18R/36L - 2953 x 328 feet< - >900 x 100 meters

Recent METARs:
LFQB 201430Z AUTO 14006KT 9999 BKN021 04/01 Q1002
LFQB 201500Z AUTO 18003KT 140V220 7000 BKN021 04/02 Q1002
LFQB 201530Z AUTO 15003KT 6000 BKN022 04/02 Q1002

Airport on the map: